UAE148 EGCC-LTFM
Flight info
| Callsign | UAE148 |
|---|---|
| Flight time | 3h 30m |
| Altitude | 39000 |
| Route | DESIG L603 LAMSO DCT PETIK DCT NORTA DCT KUMER DCT OMELO DCT ODNEM DCT ERGOM DCT TEGRI DCT TIMUR L606 GASRU T390 RILEX |
| Aircraft | A388/J-SADE2E3FGHIJ3J4J5M1RWXY/LB1D1 |
Departure
| Time | 2026-05-03 21:34 |
|---|---|
| Airport | Manchester Airport (EGCC) |
Arrival
| Time | 2026-05-04 01:04 |
|---|---|
| Airport | İstanbul Airport (LTFM) |
| Time | Latitude | Longitude | Altitude | Speed | Heading |
|---|---|---|---|---|---|
| 2026-05-03 20:15 | 53.36567 | -2.28523 | 246 ft | 0 kts | 45° |
| 2026-05-03 21:15 | 53.36563 | -2.28529 | 246 ft | 1 kts | 45° |
| 2026-05-03 21:15 | 53.36559 | -2.28537 | 247 ft | 1 kts | 45° |
| 2026-05-03 21:16 | 53.36554 | -2.28546 | 248 ft | 1 kts | 45° |
| 2026-05-03 21:16 | 53.36549 | -2.28554 | 247 ft | 1 kts | 45° |
| 2026-05-03 21:16 | 53.36544 | -2.28562 | 247 ft | 1 kts | 45° |
| 2026-05-03 21:16 | 53.36540 | -2.28571 | 248 ft | 1 kts | 53° |
| 2026-05-03 21:17 | 53.36536 | -2.28581 | 249 ft | 1 kts | 57° |
| 2026-05-03 21:17 | 53.36534 | -2.28588 | 250 ft | 1 kts | 60° |
| 2026-05-03 21:17 | 53.36530 | -2.28602 | 250 ft | 1 kts | 66° |
| 2026-05-03 21:17 | 53.36528 | -2.28613 | 249 ft | 1 kts | 69° |
| 2026-05-03 21:18 | 53.36527 | -2.28624 | 248 ft | 1 kts | 79° |
| 2026-05-03 21:18 | 53.36528 | -2.28636 | 248 ft | 1 kts | 100° |
| 2026-05-03 21:18 | 53.36532 | -2.28646 | 247 ft | 1 kts | 120° |
| 2026-05-03 21:18 | 53.36534 | -2.28651 | 249 ft | 0 kts | 131° |
| 2026-05-03 21:23 | 53.36531 | -2.28645 | 247 ft | 3 kts | 131° |
| 2026-05-03 21:23 | 53.36505 | -2.28595 | 248 ft | 9 kts | 131° |
| 2026-05-03 21:24 | 53.36455 | -2.28501 | 246 ft | 13 kts | 133° |
| 2026-05-03 21:24 | 53.36371 | -2.28421 | 246 ft | 16 kts | 165° |
| 2026-05-03 21:24 | 53.36268 | -2.28358 | 245 ft | 15 kts | 141° |
| 2026-05-03 21:24 | 53.36193 | -2.28213 | 245 ft | 18 kts | 129° |
| 2026-05-03 21:25 | 53.36105 | -2.28059 | 246 ft | 19 kts | 135° |
| 2026-05-03 21:25 | 53.36047 | -2.27964 | 246 ft | 12 kts | 137° |
| 2026-05-03 21:25 | 53.35988 | -2.27883 | 246 ft | 10 kts | 147° |
| 2026-05-03 21:25 | 53.35914 | -2.27847 | 246 ft | 13 kts | 176° |
| 2026-05-03 21:26 | 53.35903 | -2.27846 | 246 ft | 0 kts | 178° |
| 2026-05-03 21:26 | 53.35884 | -2.27847 | 245 ft | 6 kts | 186° |
| 2026-05-03 21:26 | 53.35823 | -2.27859 | 245 ft | 11 kts | 187° |
| 2026-05-03 21:27 | 53.35728 | -2.27877 | 244 ft | 16 kts | 186° |
| 2026-05-03 21:27 | 53.35609 | -2.27897 | 243 ft | 19 kts | 186° |
| 2026-05-03 21:27 | 53.35474 | -2.27925 | 241 ft | 20 kts | 198° |
| 2026-05-03 21:27 | 53.35361 | -2.28068 | 239 ft | 22 kts | 226° |
| 2026-05-03 21:28 | 53.35275 | -2.28218 | 237 ft | 15 kts | 226° |
| 2026-05-03 21:28 | 53.35195 | -2.28368 | 241 ft | 19 kts | 230° |
| 2026-05-03 21:28 | 53.35110 | -2.28546 | 237 ft | 20 kts | 231° |
| 2026-05-03 21:28 | 53.35066 | -2.28639 | 235 ft | 2 kts | 231° |
| 2026-05-03 21:29 | 53.35043 | -2.28688 | 236 ft | 9 kts | 231° |
| 2026-05-03 21:29 | 53.34991 | -2.28788 | 230 ft | 14 kts | 227° |
| 2026-05-03 21:29 | 53.34915 | -2.28924 | 231 ft | 18 kts | 226° |
| 2026-05-03 21:29 | 53.34854 | -2.29030 | 229 ft | 20 kts | 226° |
| 2026-05-03 21:30 | 53.34725 | -2.29274 | 230 ft | 21 kts | 224° |
| 2026-05-03 21:30 | 53.34702 | -2.29306 | 225 ft | 1 kts | 213° |
| 2026-05-03 21:30 | 53.34695 | -2.29313 | 224 ft | 0 kts | 212° |
| 2026-05-03 21:31 | 53.34694 | -2.29314 | 223 ft | 1 kts | 211° |
| 2026-05-03 21:31 | 53.34664 | -2.29339 | 223 ft | 8 kts | 201° |
| 2026-05-03 21:31 | 53.34598 | -2.29334 | 224 ft | 9 kts | 157° |
| 2026-05-03 21:31 | 53.34557 | -2.29274 | 221 ft | 5 kts | 108° |
| 2026-05-03 21:32 | 53.34559 | -2.29200 | 221 ft | 9 kts | 78° |
| 2026-05-03 21:32 | 53.34594 | -2.29097 | 226 ft | 6 kts | 47° |
| 2026-05-03 21:32 | 53.34595 | -2.29096 | 226 ft | 0 kts | 47° |
| 2026-05-03 21:33 | 53.34601 | -2.29086 | 226 ft | 15 kts | 46° |
| 2026-05-03 21:33 | 53.34888 | -2.28531 | 236 ft | 112 kts | 51° |
| 2026-05-03 21:33 | 53.35536 | -2.27165 | 257 ft | 178 kts | 50° |
| 2026-05-03 21:33 | 53.36354 | -2.25486 | 694 ft | 191 kts | 49° |
| 2026-05-03 21:34 | 53.37173 | -2.23734 | 1250 ft | 199 kts | 51° |
| 2026-05-03 21:34 | 53.38078 | -2.21887 | 1847 ft | 205 kts | 49° |
| 2026-05-03 21:34 | 53.39008 | -2.20104 | 2433 ft | 203 kts | 47° |
| 2026-05-03 21:34 | 53.39988 | -2.18342 | 2992 ft | 210 kts | 46° |
| 2026-05-03 21:35 | 53.41044 | -2.16557 | 3668 ft | 221 kts | 44° |
| 2026-05-03 21:35 | 53.42159 | -2.14781 | 4556 ft | 224 kts | 42° |
| 2026-05-03 21:35 | 53.43348 | -2.12966 | 5128 ft | 246 kts | 45° |
| 2026-05-03 21:35 | 53.44376 | -2.10525 | 5032 ft | 266 kts | 62° |
| 2026-05-03 21:36 | 53.45234 | -2.07727 | 5032 ft | 271 kts | 61° |
| 2026-05-03 21:36 | 53.46197 | -2.04975 | 5035 ft | 272 kts | 57° |
| 2026-05-03 21:36 | 53.47269 | -2.02373 | 5034 ft | 271 kts | 53° |
| 2026-05-03 21:36 | 53.48401 | -1.99882 | 5036 ft | 272 kts | 51° |
| 2026-05-03 21:37 | 53.49557 | -1.97450 | 5033 ft | 272 kts | 51° |
| 2026-05-03 21:37 | 53.50750 | -1.94976 | 5038 ft | 272 kts | 52° |
| 2026-05-03 21:37 | 53.51787 | -1.92340 | 5072 ft | 274 kts | 62° |
| 2026-05-03 21:37 | 53.52351 | -1.89299 | 5363 ft | 276 kts | 86° |
| 2026-05-03 21:38 | 53.52144 | -1.86142 | 6237 ft | 275 kts | 105° |
| 2026-05-03 21:38 | 53.51621 | -1.83126 | 7122 ft | 278 kts | 106° |
| 2026-05-03 21:38 | 53.51068 | -1.79910 | 8018 ft | 282 kts | 106° |
| 2026-05-03 21:38 | 53.50516 | -1.76713 | 8885 ft | 285 kts | 106° |
| 2026-05-03 21:39 | 53.49951 | -1.73476 | 9746 ft | 289 kts | 106° |
| 2026-05-03 21:39 | 53.49379 | -1.70223 | 10444 ft | 299 kts | 107° |
| 2026-05-03 21:39 | 53.48775 | -1.66810 | 10688 ft | 321 kts | 107° |
| 2026-05-03 21:39 | 53.48108 | -1.63045 | 10956 ft | 341 kts | 107° |
| 2026-05-03 21:40 | 53.47424 | -1.59197 | 11611 ft | 346 kts | 107° |
| 2026-05-03 21:40 | 53.46735 | -1.55328 | 12333 ft | 349 kts | 107° |
| 2026-05-03 21:40 | 53.46035 | -1.51422 | 13008 ft | 353 kts | 107° |
| 2026-05-03 21:40 | 53.45317 | -1.47424 | 13735 ft | 356 kts | 107° |
| 2026-05-03 21:41 | 53.44605 | -1.43464 | 14397 ft | 359 kts | 107° |
| 2026-05-03 21:41 | 53.43877 | -1.39425 | 15051 ft | 363 kts | 107° |
| 2026-05-03 21:41 | 53.43138 | -1.35337 | 15699 ft | 366 kts | 107° |
| 2026-05-03 21:41 | 53.42402 | -1.31268 | 16300 ft | 370 kts | 107° |
| 2026-05-03 21:42 | 53.41639 | -1.27063 | 16905 ft | 374 kts | 107° |
| 2026-05-03 21:42 | 53.40889 | -1.22931 | 17485 ft | 377 kts | 107° |
| 2026-05-03 21:42 | 53.40116 | -1.18673 | 18063 ft | 380 kts | 107° |
| 2026-05-03 21:42 | 53.39346 | -1.14448 | 18623 ft | 383 kts | 107° |
| 2026-05-03 21:43 | 53.38569 | -1.10196 | 19160 ft | 386 kts | 107° |
| 2026-05-03 21:43 | 53.37769 | -1.05827 | 19691 ft | 389 kts | 107° |
| 2026-05-03 21:43 | 53.36978 | -1.01522 | 20196 ft | 392 kts | 107° |
| 2026-05-03 21:43 | 53.36168 | -0.97126 | 20694 ft | 395 kts | 107° |
| 2026-05-03 21:44 | 53.35354 | -0.92712 | 21181 ft | 398 kts | 107° |
| 2026-05-03 21:44 | 53.34527 | -0.88241 | 21662 ft | 401 kts | 107° |
| 2026-05-03 21:44 | 53.33702 | -0.83795 | 22119 ft | 404 kts | 107° |
| 2026-05-03 21:44 | 53.32869 | -0.79312 | 22591 ft | 407 kts | 107° |
| 2026-05-03 21:45 | 53.32022 | -0.74764 | 23052 ft | 410 kts | 107° |
| 2026-05-03 21:45 | 53.31177 | -0.70243 | 23483 ft | 412 kts | 107° |
| 2026-05-03 21:45 | 53.30316 | -0.65644 | 23912 ft | 415 kts | 107° |
| 2026-05-03 21:45 | 53.29439 | -0.60971 | 24353 ft | 418 kts | 107° |
| 2026-05-03 21:46 | 53.28572 | -0.56362 | 24783 ft | 421 kts | 107° |
| 2026-05-03 21:46 | 53.27691 | -0.51690 | 25193 ft | 424 kts | 107° |
| 2026-05-03 21:46 | 53.26800 | -0.46976 | 25626 ft | 426 kts | 108° |
| 2026-05-03 21:46 | 53.25916 | -0.42312 | 26081 ft | 429 kts | 108° |
| 2026-05-03 21:47 | 53.24994 | -0.37458 | 26552 ft | 432 kts | 108° |
| 2026-05-03 21:47 | 53.24072 | -0.32616 | 27011 ft | 435 kts | 108° |
| 2026-05-03 21:47 | 53.23157 | -0.27825 | 27460 ft | 438 kts | 108° |
| 2026-05-03 21:47 | 53.22221 | -0.22938 | 27946 ft | 442 kts | 108° |
| 2026-05-03 21:48 | 53.21281 | -0.18042 | 28398 ft | 445 kts | 108° |
| 2026-05-03 21:48 | 53.20328 | -0.13094 | 28855 ft | 448 kts | 108° |
| 2026-05-03 21:48 | 53.19369 | -0.08125 | 29309 ft | 451 kts | 108° |
| 2026-05-03 21:48 | 53.18410 | -0.03165 | 29758 ft | 455 kts | 108° |
| 2026-05-03 21:49 | 53.17436 | 0.01851 | 30193 ft | 458 kts | 108° |
| 2026-05-03 21:49 | 53.16443 | 0.06957 | 30652 ft | 461 kts | 108° |
| 2026-05-03 21:49 | 53.15455 | 0.12023 | 31107 ft | 464 kts | 108° |
| 2026-05-03 21:49 | 53.14459 | 0.17118 | 31527 ft | 467 kts | 108° |
| 2026-05-03 21:50 | 53.13442 | 0.22304 | 31929 ft | 470 kts | 108° |
| 2026-05-03 21:50 | 53.12432 | 0.27443 | 32336 ft | 473 kts | 108° |
| 2026-05-03 21:50 | 53.11395 | 0.32704 | 32753 ft | 476 kts | 108° |
| 2026-05-03 21:50 | 53.10361 | 0.37939 | 33169 ft | 479 kts | 108° |
| 2026-05-03 21:51 | 53.09315 | 0.43213 | 33551 ft | 482 kts | 108° |
| 2026-05-03 21:51 | 53.08246 | 0.48592 | 33935 ft | 485 kts | 108° |
| 2026-05-03 21:51 | 53.07194 | 0.53875 | 34317 ft | 488 kts | 108° |
| 2026-05-03 21:51 | 53.06115 | 0.59276 | 34738 ft | 489 kts | 108° |
| 2026-05-03 21:52 | 53.05051 | 0.64583 | 35240 ft | 489 kts | 108° |
| 2026-05-03 21:52 | 53.03971 | 0.69960 | 35764 ft | 488 kts | 108° |
| 2026-05-03 21:52 | 53.02892 | 0.75316 | 36283 ft | 486 kts | 108° |
| 2026-05-03 21:52 | 53.01810 | 0.80672 | 36736 ft | 486 kts | 109° |
| 2026-05-03 21:53 | 53.00740 | 0.85954 | 37156 ft | 486 kts | 109° |
| 2026-05-03 21:53 | 52.99656 | 0.91289 | 37581 ft | 486 kts | 109° |
| 2026-05-03 21:53 | 52.98582 | 0.96565 | 37995 ft | 486 kts | 109° |
| 2026-05-03 21:53 | 52.97631 | 1.01984 | 38388 ft | 486 kts | 103° |
| 2026-05-03 21:54 | 52.96990 | 1.07487 | 38779 ft | 486 kts | 100° |
| 2026-05-03 21:54 | 52.96368 | 1.13041 | 38974 ft | 491 kts | 101° |
| 2026-05-03 21:54 | 52.95096 | 1.24098 | 38997 ft | 488 kts | 101° |
| 2026-05-03 21:55 | 52.93799 | 1.35197 | 38995 ft | 490 kts | 101° |
| 2026-05-03 21:55 | 52.92491 | 1.46282 | 38996 ft | 490 kts | 101° |
| 2026-05-03 21:56 | 52.91177 | 1.57333 | 38999 ft | 490 kts | 101° |
| 2026-05-03 21:56 | 52.89850 | 1.68402 | 39009 ft | 490 kts | 101° |
| 2026-05-03 21:57 | 52.88513 | 1.79460 | 39001 ft | 490 kts | 101° |
| 2026-05-03 21:57 | 52.87169 | 1.90491 | 38998 ft | 490 kts | 101° |
| 2026-05-03 21:58 | 52.85810 | 2.01549 | 39002 ft | 490 kts | 101° |
| 2026-05-03 21:58 | 52.84439 | 2.12612 | 39005 ft | 490 kts | 102° |
| 2026-05-03 21:59 | 52.83058 | 2.23673 | 38998 ft | 490 kts | 102° |
| 2026-05-03 21:59 | 52.81665 | 2.34730 | 38997 ft | 490 kts | 102° |
| 2026-05-03 22:00 | 52.80269 | 2.45728 | 39005 ft | 490 kts | 102° |
| 2026-05-03 22:00 | 52.78872 | 2.56665 | 38995 ft | 490 kts | 102° |
| 2026-05-03 22:01 | 52.77440 | 2.67762 | 38998 ft | 490 kts | 102° |
| 2026-05-03 22:01 | 52.76017 | 2.78703 | 39004 ft | 490 kts | 102° |
| 2026-05-03 22:02 | 52.74575 | 2.89708 | 39001 ft | 490 kts | 102° |
| 2026-05-03 22:02 | 52.73161 | 3.00713 | 39005 ft | 490 kts | 99° |
| 2026-05-03 22:03 | 52.72152 | 3.11845 | 39000 ft | 490 kts | 98° |
| 2026-05-03 22:03 | 52.71124 | 3.22971 | 38996 ft | 490 kts | 98° |
| 2026-05-03 22:04 | 52.70089 | 3.34007 | 38996 ft | 490 kts | 99° |
| 2026-05-03 22:04 | 52.69039 | 3.45104 | 38997 ft | 490 kts | 99° |
| 2026-05-03 22:05 | 52.67980 | 3.56171 | 39002 ft | 490 kts | 99° |
| 2026-05-03 22:05 | 52.66902 | 3.67331 | 39002 ft | 490 kts | 99° |
| 2026-05-03 22:06 | 52.65820 | 3.78411 | 38998 ft | 490 kts | 99° |
| 2026-05-03 22:06 | 52.64738 | 3.89389 | 39001 ft | 490 kts | 99° |
| 2026-05-03 22:07 | 52.63617 | 4.00652 | 39006 ft | 490 kts | 99° |
| 2026-05-03 22:07 | 52.62681 | 4.09968 | 39005 ft | 490 kts | 99° |
| 2026-05-03 22:08 | 52.61575 | 4.20878 | 38998 ft | 490 kts | 99° |
| 2026-05-03 22:08 | 52.60373 | 4.32076 | 38997 ft | 490 kts | 100° |
| 2026-05-03 22:09 | 52.59153 | 4.43074 | 39009 ft | 490 kts | 100° |
| 2026-05-03 22:10 | 52.57330 | 4.59636 | 39002 ft | 490 kts | 100° |
| 2026-05-03 22:10 | 52.56105 | 4.70629 | 39003 ft | 490 kts | 100° |
| 2026-05-03 22:11 | 52.54862 | 4.81652 | 38996 ft | 490 kts | 101° |
| 2026-05-03 22:11 | 52.53614 | 4.92626 | 39001 ft | 490 kts | 101° |
| 2026-05-03 22:12 | 52.52348 | 5.03653 | 39003 ft | 490 kts | 101° |
| 2026-05-03 22:12 | 52.51079 | 5.14620 | 38998 ft | 490 kts | 101° |
| 2026-05-03 22:13 | 52.49792 | 5.25647 | 39004 ft | 490 kts | 101° |
| 2026-05-03 22:13 | 52.48495 | 5.36662 | 38997 ft | 490 kts | 101° |
| 2026-05-03 22:14 | 52.47192 | 5.47636 | 39003 ft | 490 kts | 101° |
| 2026-05-03 22:14 | 52.45882 | 5.58579 | 39005 ft | 490 kts | 101° |
| 2026-05-03 22:15 | 52.44560 | 5.69532 | 39000 ft | 490 kts | 101° |
| 2026-05-03 22:15 | 52.43223 | 5.80515 | 38997 ft | 490 kts | 101° |
| 2026-05-03 22:16 | 52.41879 | 5.91471 | 39003 ft | 490 kts | 101° |
| 2026-05-03 22:16 | 52.40522 | 6.02436 | 38995 ft | 490 kts | 101° |
| 2026-05-03 22:17 | 52.39163 | 6.13337 | 38994 ft | 490 kts | 102° |
| 2026-05-03 22:17 | 52.37796 | 6.24209 | 38995 ft | 490 kts | 102° |
| 2026-05-03 22:18 | 52.36388 | 6.35323 | 39000 ft | 490 kts | 102° |
| 2026-05-03 22:18 | 52.34992 | 6.46247 | 39004 ft | 490 kts | 102° |
| 2026-05-03 22:19 | 52.33589 | 6.57150 | 39002 ft | 490 kts | 102° |
| 2026-05-03 22:19 | 52.32174 | 6.68057 | 38999 ft | 490 kts | 102° |
| 2026-05-03 22:20 | 52.30741 | 6.79014 | 38997 ft | 490 kts | 102° |
| 2026-05-03 22:20 | 52.29306 | 6.89912 | 38999 ft | 490 kts | 102° |
| 2026-05-03 22:21 | 52.27864 | 7.00774 | 38997 ft | 490 kts | 102° |
| 2026-05-03 22:21 | 52.26403 | 7.11694 | 39001 ft | 490 kts | 102° |
| 2026-05-03 22:22 | 52.24947 | 7.22496 | 38997 ft | 490 kts | 102° |
| 2026-05-03 22:22 | 52.23467 | 7.33397 | 38996 ft | 490 kts | 102° |
| 2026-05-03 22:23 | 52.21980 | 7.44267 | 38994 ft | 490 kts | 103° |
| 2026-05-03 22:23 | 52.20473 | 7.55208 | 38997 ft | 490 kts | 103° |
| 2026-05-03 22:24 | 52.18947 | 7.66201 | 38997 ft | 490 kts | 103° |
| 2026-05-03 22:24 | 52.17418 | 7.77136 | 39000 ft | 490 kts | 103° |
| 2026-05-03 22:25 | 52.15905 | 7.87877 | 38995 ft | 490 kts | 103° |
| 2026-05-03 22:25 | 52.14357 | 7.98790 | 38995 ft | 490 kts | 103° |
| 2026-05-03 22:26 | 52.12812 | 8.09599 | 39004 ft | 490 kts | 103° |
| 2026-05-03 22:26 | 52.11250 | 8.20452 | 38997 ft | 490 kts | 103° |
| 2026-05-03 22:27 | 52.09694 | 8.31186 | 38992 ft | 491 kts | 103° |
| 2026-05-03 22:27 | 52.08382 | 8.40184 | 38995 ft | 491 kts | 103° |
| 2026-05-03 22:28 | 52.06788 | 8.51044 | 39007 ft | 491 kts | 103° |
| 2026-05-03 22:28 | 52.05193 | 8.61840 | 39013 ft | 491 kts | 103° |
| 2026-05-03 22:29 | 52.03583 | 8.72657 | 39005 ft | 491 kts | 103° |
| 2026-05-03 22:29 | 52.01977 | 8.83378 | 39004 ft | 491 kts | 104° |
| 2026-05-03 22:30 | 52.00345 | 8.94191 | 38999 ft | 491 kts | 104° |
| 2026-05-03 22:30 | 51.98712 | 9.04943 | 39002 ft | 491 kts | 104° |
| 2026-05-03 22:31 | 51.97064 | 9.15720 | 38997 ft | 491 kts | 104° |
| 2026-05-03 22:31 | 51.95382 | 9.26653 | 38998 ft | 491 kts | 104° |
| 2026-05-03 22:32 | 51.93719 | 9.37380 | 38992 ft | 491 kts | 104° |
| 2026-05-03 22:32 | 51.92038 | 9.48160 | 39001 ft | 491 kts | 104° |
| 2026-05-03 22:33 | 51.90360 | 9.58848 | 39002 ft | 491 kts | 104° |
| 2026-05-03 22:33 | 51.88646 | 9.69709 | 38994 ft | 491 kts | 105° |
| 2026-05-03 22:34 | 51.86408 | 9.80004 | 39000 ft | 491 kts | 113° |
| 2026-05-03 22:34 | 51.83255 | 9.90034 | 38996 ft | 492 kts | 121° |
| 2026-05-03 22:35 | 51.79546 | 9.99339 | 39001 ft | 492 kts | 123° |
| 2026-05-03 22:35 | 51.75831 | 10.08714 | 38997 ft | 492 kts | 123° |
| 2026-05-03 22:36 | 51.72149 | 10.17946 | 39008 ft | 492 kts | 123° |
| 2026-05-03 22:36 | 51.68476 | 10.27106 | 39004 ft | 492 kts | 123° |
| 2026-05-03 22:37 | 51.64712 | 10.36454 | 39000 ft | 492 kts | 123° |
| 2026-05-03 22:37 | 51.60956 | 10.45752 | 38994 ft | 492 kts | 123° |
| 2026-05-03 22:38 | 51.57249 | 10.54894 | 38994 ft | 491 kts | 123° |
| 2026-05-03 22:38 | 51.53899 | 10.64449 | 38999 ft | 491 kts | 114° |
| 2026-05-03 22:39 | 51.51547 | 10.74793 | 38999 ft | 491 kts | 107° |
| 2026-05-03 22:39 | 51.49571 | 10.85276 | 38998 ft | 492 kts | 107° |
| 2026-05-03 22:40 | 51.47550 | 10.95770 | 39005 ft | 492 kts | 107° |
| 2026-05-03 22:40 | 51.45510 | 11.06266 | 39013 ft | 492 kts | 107° |
| 2026-05-03 22:41 | 51.43479 | 11.16662 | 39003 ft | 492 kts | 107° |
| 2026-05-03 22:41 | 51.41414 | 11.27173 | 39001 ft | 492 kts | 107° |
| 2026-05-03 22:42 | 51.39334 | 11.37699 | 39008 ft | 491 kts | 108° |
| 2026-05-03 22:42 | 51.37294 | 11.47976 | 38995 ft | 491 kts | 108° |
| 2026-05-03 22:43 | 51.35193 | 11.58496 | 39002 ft | 491 kts | 108° |
| 2026-05-03 22:43 | 51.33107 | 11.68889 | 38997 ft | 491 kts | 108° |
| 2026-05-03 22:44 | 51.30998 | 11.79338 | 39002 ft | 491 kts | 108° |
| 2026-05-03 22:44 | 51.28877 | 11.89792 | 39000 ft | 491 kts | 108° |
| 2026-05-03 22:45 | 51.26764 | 12.00155 | 39007 ft | 491 kts | 108° |
| 2026-05-03 22:45 | 51.24637 | 12.10529 | 39007 ft | 491 kts | 108° |
| 2026-05-03 22:46 | 51.22518 | 12.20810 | 39002 ft | 491 kts | 108° |
| 2026-05-03 22:46 | 51.20354 | 12.31255 | 39000 ft | 491 kts | 108° |
| 2026-05-03 22:47 | 51.18568 | 12.39838 | 39000 ft | 491 kts | 108° |
| 2026-05-03 22:47 | 51.16054 | 12.51850 | 38996 ft | 491 kts | 108° |
| 2026-05-03 22:48 | 51.14242 | 12.60469 | 39003 ft | 491 kts | 108° |
| 2026-05-03 22:48 | 51.12060 | 12.70795 | 38994 ft | 491 kts | 109° |
| 2026-05-03 22:49 | 51.09855 | 12.81178 | 38996 ft | 491 kts | 109° |
| 2026-05-03 22:49 | 51.07657 | 12.91473 | 38992 ft | 491 kts | 109° |
| 2026-05-03 22:50 | 51.05456 | 13.01734 | 38991 ft | 491 kts | 109° |
| 2026-05-03 22:50 | 51.03224 | 13.12082 | 38997 ft | 491 kts | 109° |
| 2026-05-03 22:51 | 51.01105 | 13.21865 | 38993 ft | 492 kts | 109° |
| 2026-05-03 22:51 | 50.98840 | 13.32264 | 39002 ft | 492 kts | 109° |
| 2026-05-03 22:52 | 50.96587 | 13.42558 | 38995 ft | 492 kts | 109° |
| 2026-05-03 22:52 | 50.94334 | 13.52801 | 38998 ft | 492 kts | 109° |
| 2026-05-03 22:53 | 50.92069 | 13.63048 | 39003 ft | 492 kts | 109° |
| 2026-05-03 22:53 | 50.89799 | 13.73268 | 39005 ft | 493 kts | 109° |
| 2026-05-03 22:54 | 50.87519 | 13.83482 | 39000 ft | 493 kts | 109° |
| 2026-05-03 22:54 | 50.85071 | 13.93628 | 39001 ft | 493 kts | 115° |
| 2026-05-03 22:55 | 50.83399 | 13.98639 | 38993 ft | 492 kts | 121° |
| 2026-05-03 22:55 | 50.79415 | 14.07469 | 38992 ft | 492 kts | 131° |
| 2026-05-03 22:56 | 50.74856 | 14.15163 | 38997 ft | 492 kts | 133° |
| 2026-05-03 22:56 | 50.70207 | 14.23039 | 39008 ft | 493 kts | 133° |
| 2026-05-03 22:57 | 50.65539 | 14.30913 | 38996 ft | 493 kts | 133° |
| 2026-05-03 22:57 | 50.60822 | 14.38827 | 39001 ft | 493 kts | 133° |
| 2026-05-03 22:58 | 50.56137 | 14.46658 | 39003 ft | 493 kts | 133° |
| 2026-05-03 22:58 | 50.51387 | 14.54575 | 39008 ft | 493 kts | 133° |
| 2026-05-03 22:59 | 50.46705 | 14.62353 | 39005 ft | 492 kts | 133° |
| 2026-05-03 22:59 | 50.41986 | 14.70169 | 39003 ft | 492 kts | 134° |
| 2026-05-03 23:00 | 50.37247 | 14.77993 | 39006 ft | 492 kts | 134° |
| 2026-05-03 23:00 | 50.32534 | 14.85751 | 39008 ft | 492 kts | 134° |
| 2026-05-03 23:01 | 50.27832 | 14.93467 | 39003 ft | 491 kts | 134° |
| 2026-05-03 23:01 | 50.23100 | 15.01208 | 39001 ft | 491 kts | 134° |
| 2026-05-03 23:02 | 50.18383 | 15.08901 | 39000 ft | 491 kts | 134° |
| 2026-05-03 23:02 | 50.13689 | 15.16534 | 38999 ft | 491 kts | 134° |
| 2026-05-03 23:03 | 50.08926 | 15.24254 | 38999 ft | 491 kts | 134° |
| 2026-05-03 23:03 | 50.04169 | 15.31943 | 38997 ft | 491 kts | 134° |
| 2026-05-03 23:04 | 49.99460 | 15.39529 | 38997 ft | 491 kts | 134° |
| 2026-05-03 23:04 | 49.97016 | 15.43458 | 39002 ft | 491 kts | 134° |
| 2026-05-03 23:05 | 49.92288 | 15.51042 | 38996 ft | 491 kts | 134° |
| 2026-05-03 23:05 | 49.87526 | 15.58657 | 38993 ft | 491 kts | 134° |
| 2026-05-03 23:06 | 49.82772 | 15.66234 | 38990 ft | 492 kts | 134° |
| 2026-05-03 23:06 | 49.77905 | 15.73969 | 39007 ft | 510 kts | 134° |
| 2026-05-03 23:07 | 49.72904 | 15.81894 | 38997 ft | 516 kts | 134° |
| 2026-05-03 23:07 | 49.67873 | 15.89841 | 38999 ft | 517 kts | 134° |
| 2026-05-03 23:08 | 49.62845 | 15.97758 | 38998 ft | 517 kts | 134° |
| 2026-05-03 23:08 | 49.57701 | 16.05831 | 38998 ft | 517 kts | 135° |
| 2026-05-03 23:09 | 49.52671 | 16.13701 | 39002 ft | 516 kts | 135° |
| 2026-05-03 23:09 | 49.47595 | 16.21617 | 39003 ft | 516 kts | 135° |
| 2026-05-03 23:10 | 49.42549 | 16.29463 | 39000 ft | 516 kts | 135° |
| 2026-05-03 23:10 | 49.38339 | 16.35991 | 38998 ft | 515 kts | 135° |
| 2026-05-03 23:11 | 49.32447 | 16.45097 | 39003 ft | 514 kts | 135° |
| 2026-05-03 23:11 | 49.28273 | 16.51529 | 38998 ft | 514 kts | 135° |
| 2026-05-03 23:12 | 49.23216 | 16.59299 | 38998 ft | 514 kts | 135° |
| 2026-05-03 23:12 | 49.18159 | 16.67045 | 39000 ft | 514 kts | 135° |
| 2026-05-03 23:13 | 49.13089 | 16.74788 | 39005 ft | 514 kts | 135° |
| 2026-05-03 23:13 | 49.08043 | 16.82469 | 38998 ft | 513 kts | 135° |
| 2026-05-03 23:14 | 49.02991 | 16.90138 | 38998 ft | 514 kts | 135° |
| 2026-05-03 23:14 | 48.97886 | 16.97862 | 39000 ft | 513 kts | 135° |
| 2026-05-03 23:15 | 48.92815 | 17.05513 | 39002 ft | 513 kts | 135° |
| 2026-05-03 23:15 | 48.87780 | 17.13094 | 38999 ft | 513 kts | 135° |
| 2026-05-03 23:16 | 48.82688 | 17.20785 | 38998 ft | 513 kts | 135° |
| 2026-05-03 23:16 | 48.77686 | 17.28511 | 38998 ft | 514 kts | 134° |
| 2026-05-03 23:17 | 48.72669 | 17.36243 | 38998 ft | 514 kts | 135° |
| 2026-05-03 23:17 | 48.67668 | 17.43904 | 38999 ft | 514 kts | 135° |
| 2026-05-03 23:18 | 48.62605 | 17.51631 | 38998 ft | 514 kts | 135° |
| 2026-05-03 23:18 | 48.57577 | 17.59282 | 38998 ft | 514 kts | 135° |
| 2026-05-03 23:19 | 48.52516 | 17.66960 | 38998 ft | 513 kts | 135° |
| 2026-05-03 23:19 | 48.47502 | 17.74543 | 39002 ft | 513 kts | 135° |
| 2026-05-03 23:20 | 48.42447 | 17.82166 | 38998 ft | 513 kts | 135° |
| 2026-05-03 23:20 | 48.37392 | 17.89767 | 38999 ft | 513 kts | 135° |
| 2026-05-03 23:21 | 48.32359 | 17.97312 | 39002 ft | 513 kts | 135° |
| 2026-05-03 23:21 | 48.27297 | 18.04878 | 38998 ft | 513 kts | 135° |
| 2026-05-03 23:22 | 48.19684 | 18.16214 | 38999 ft | 513 kts | 135° |
| 2026-05-03 23:22 | 48.14625 | 18.23721 | 39001 ft | 513 kts | 135° |
| 2026-05-03 23:23 | 48.09572 | 18.31195 | 39004 ft | 513 kts | 135° |
| 2026-05-03 23:23 | 48.04467 | 18.38726 | 38999 ft | 514 kts | 135° |
| 2026-05-03 23:24 | 47.99306 | 18.46315 | 39002 ft | 514 kts | 135° |
| 2026-05-03 23:24 | 47.94195 | 18.53809 | 38998 ft | 513 kts | 135° |
| 2026-05-03 23:25 | 47.89154 | 18.61180 | 38999 ft | 513 kts | 136° |
| 2026-05-03 23:25 | 47.83987 | 18.68713 | 39002 ft | 513 kts | 136° |
| 2026-05-03 23:26 | 47.78890 | 18.76197 | 39003 ft | 514 kts | 134° |
| 2026-05-03 23:26 | 47.74030 | 18.84052 | 38998 ft | 515 kts | 132° |
| 2026-05-03 23:27 | 47.69179 | 18.91917 | 38999 ft | 515 kts | 133° |
| 2026-05-03 23:27 | 47.64347 | 18.99634 | 38999 ft | 513 kts | 133° |
| 2026-05-03 23:28 | 47.59455 | 19.07398 | 39000 ft | 513 kts | 133° |
| 2026-05-03 23:28 | 47.54595 | 19.15088 | 38999 ft | 513 kts | 133° |
| 2026-05-03 23:29 | 47.49641 | 19.22904 | 38999 ft | 513 kts | 133° |
| 2026-05-03 23:29 | 47.44783 | 19.30546 | 38999 ft | 513 kts | 133° |
| 2026-05-03 23:30 | 47.39846 | 19.38290 | 38999 ft | 513 kts | 133° |
| 2026-05-03 23:30 | 47.35040 | 19.45808 | 38999 ft | 513 kts | 133° |
| 2026-05-03 23:31 | 47.30097 | 19.53517 | 39003 ft | 513 kts | 133° |
| 2026-05-03 23:31 | 47.25205 | 19.61124 | 38999 ft | 513 kts | 134° |
| 2026-05-03 23:32 | 47.20280 | 19.68760 | 38999 ft | 513 kts | 134° |
| 2026-05-03 23:32 | 47.15400 | 19.76305 | 39004 ft | 513 kts | 134° |
| 2026-05-03 23:33 | 47.10454 | 19.83930 | 38998 ft | 513 kts | 134° |
| 2026-05-03 23:33 | 47.05512 | 19.91528 | 38999 ft | 513 kts | 134° |
| 2026-05-03 23:34 | 47.00609 | 19.99043 | 38999 ft | 513 kts | 134° |
| 2026-05-03 23:34 | 46.95577 | 20.06735 | 38999 ft | 513 kts | 134° |
| 2026-05-03 23:35 | 46.91446 | 20.13032 | 38999 ft | 513 kts | 134° |
| 2026-05-03 23:35 | 46.86510 | 20.20537 | 38999 ft | 513 kts | 134° |
| 2026-05-03 23:36 | 46.81622 | 20.27948 | 38999 ft | 513 kts | 134° |
| 2026-05-03 23:36 | 46.76687 | 20.35410 | 39010 ft | 513 kts | 134° |
| 2026-05-03 23:37 | 46.71710 | 20.42914 | 38999 ft | 513 kts | 134° |
| 2026-05-03 23:37 | 46.66752 | 20.50368 | 38999 ft | 513 kts | 134° |
| 2026-05-03 23:38 | 46.61973 | 20.57534 | 38999 ft | 513 kts | 134° |
| 2026-05-03 23:38 | 46.56983 | 20.64994 | 39004 ft | 513 kts | 134° |
| 2026-05-03 23:39 | 46.52036 | 20.72370 | 38998 ft | 513 kts | 134° |
| 2026-05-03 23:39 | 46.47054 | 20.79778 | 38999 ft | 513 kts | 134° |
| 2026-05-03 23:40 | 46.42104 | 20.87117 | 38999 ft | 513 kts | 134° |
| 2026-05-03 23:40 | 46.37095 | 20.94524 | 38998 ft | 513 kts | 134° |
| 2026-05-03 23:41 | 46.32115 | 21.01868 | 38998 ft | 513 kts | 134° |
| 2026-05-03 23:41 | 46.27123 | 21.09211 | 39004 ft | 513 kts | 135° |
| 2026-05-03 23:42 | 46.21837 | 21.16157 | 38999 ft | 513 kts | 138° |
| 2026-05-03 23:42 | 46.16553 | 21.22989 | 39002 ft | 513 kts | 138° |
| 2026-05-03 23:43 | 46.11236 | 21.29861 | 38998 ft | 513 kts | 138° |
| 2026-05-03 23:43 | 46.05922 | 21.36695 | 38999 ft | 513 kts | 138° |
| 2026-05-03 23:44 | 46.00599 | 21.43515 | 38999 ft | 513 kts | 138° |
| 2026-05-03 23:44 | 45.95288 | 21.50300 | 38999 ft | 514 kts | 139° |
| 2026-05-03 23:45 | 45.89921 | 21.57139 | 39002 ft | 514 kts | 139° |
| 2026-05-03 23:45 | 45.84665 | 21.63818 | 39004 ft | 513 kts | 139° |
| 2026-05-03 23:46 | 45.79339 | 21.70569 | 39002 ft | 513 kts | 139° |
| 2026-05-03 23:46 | 45.73992 | 21.77328 | 38999 ft | 513 kts | 139° |
| 2026-05-03 23:47 | 45.68621 | 21.84100 | 38998 ft | 513 kts | 139° |
| 2026-05-03 23:47 | 45.63285 | 21.90809 | 39003 ft | 513 kts | 139° |
| 2026-05-03 23:48 | 45.57933 | 21.97521 | 39003 ft | 513 kts | 139° |
| 2026-05-03 23:48 | 45.52573 | 22.04225 | 38998 ft | 514 kts | 139° |
| 2026-05-03 23:49 | 45.47193 | 22.10936 | 38999 ft | 514 kts | 139° |
| 2026-05-03 23:49 | 45.41804 | 22.17640 | 39001 ft | 514 kts | 139° |
| 2026-05-03 23:50 | 45.36422 | 22.24320 | 38998 ft | 513 kts | 139° |
| 2026-05-03 23:50 | 45.31050 | 22.30968 | 38998 ft | 514 kts | 139° |
| 2026-05-03 23:51 | 45.25629 | 22.37660 | 38998 ft | 518 kts | 139° |
| 2026-05-03 23:51 | 45.20160 | 22.44393 | 39005 ft | 518 kts | 139° |
| 2026-05-03 23:52 | 45.14697 | 22.51101 | 39000 ft | 519 kts | 139° |
| 2026-05-03 23:52 | 45.09177 | 22.57862 | 38999 ft | 522 kts | 139° |
| 2026-05-03 23:53 | 45.03691 | 22.64562 | 38998 ft | 516 kts | 139° |
| 2026-05-03 23:53 | 44.98268 | 22.71168 | 38998 ft | 516 kts | 139° |
| 2026-05-03 23:54 | 44.92831 | 22.77775 | 38999 ft | 515 kts | 139° |
| 2026-05-03 23:54 | 44.87333 | 22.84438 | 38998 ft | 513 kts | 139° |
| 2026-05-03 23:55 | 44.81949 | 22.90946 | 38999 ft | 513 kts | 139° |
| 2026-05-03 23:55 | 44.76507 | 22.97507 | 38998 ft | 514 kts | 140° |
| 2026-05-03 23:56 | 44.71078 | 23.04037 | 39004 ft | 514 kts | 140° |
| 2026-05-03 23:56 | 44.65692 | 23.10497 | 38998 ft | 514 kts | 140° |
| 2026-05-03 23:57 | 44.60217 | 23.17047 | 39003 ft | 513 kts | 140° |
| 2026-05-03 23:57 | 44.54746 | 23.23577 | 39007 ft | 514 kts | 140° |
| 2026-05-03 23:58 | 44.49325 | 23.30030 | 38998 ft | 513 kts | 140° |
| 2026-05-03 23:58 | 44.43883 | 23.36491 | 38999 ft | 513 kts | 140° |
| 2026-05-03 23:59 | 44.38385 | 23.43003 | 38999 ft | 513 kts | 140° |
| 2026-05-03 23:59 | 44.32925 | 23.49453 | 39003 ft | 513 kts | 140° |
| 2026-05-04 00:00 | 44.27511 | 23.55833 | 38998 ft | 513 kts | 140° |
| 2026-05-04 00:00 | 44.21998 | 23.62312 | 38998 ft | 513 kts | 140° |
| 2026-05-04 00:01 | 44.16522 | 23.68733 | 38998 ft | 513 kts | 140° |
| 2026-05-04 00:01 | 44.11061 | 23.75120 | 39002 ft | 513 kts | 140° |
| 2026-05-04 00:02 | 44.05620 | 23.81468 | 38999 ft | 513 kts | 140° |
| 2026-05-04 00:02 | 44.00169 | 23.87810 | 38998 ft | 512 kts | 140° |
| 2026-05-04 00:03 | 43.94682 | 23.94180 | 38998 ft | 512 kts | 140° |
| 2026-05-04 00:03 | 43.89215 | 24.00510 | 38998 ft | 512 kts | 140° |
| 2026-05-04 00:04 | 43.83720 | 24.06857 | 39001 ft | 512 kts | 140° |
| 2026-05-04 00:04 | 43.78246 | 24.13165 | 39004 ft | 512 kts | 140° |
| 2026-05-04 00:05 | 43.72763 | 24.19473 | 38998 ft | 512 kts | 140° |
| 2026-05-04 00:05 | 43.67277 | 24.25813 | 39000 ft | 513 kts | 138° |
| 2026-05-04 00:06 | 43.62975 | 24.31559 | 38999 ft | 513 kts | 135° |
| 2026-05-04 00:06 | 43.57948 | 24.38451 | 39003 ft | 513 kts | 136° |
| 2026-05-04 00:07 | 43.52854 | 24.45274 | 39003 ft | 496 kts | 136° |
| 2026-05-04 00:07 | 43.47963 | 24.51760 | 39002 ft | 488 kts | 136° |
| 2026-05-04 00:08 | 43.43059 | 24.58242 | 38999 ft | 490 kts | 136° |
| 2026-05-04 00:08 | 43.38119 | 24.64758 | 38998 ft | 491 kts | 136° |
| 2026-05-04 00:09 | 43.33182 | 24.71257 | 38998 ft | 491 kts | 136° |
| 2026-05-04 00:09 | 43.28253 | 24.77729 | 38999 ft | 492 kts | 136° |
| 2026-05-04 00:10 | 43.23277 | 24.84246 | 39003 ft | 491 kts | 136° |
| 2026-05-04 00:10 | 43.18345 | 24.90691 | 38999 ft | 492 kts | 136° |
| 2026-05-04 00:11 | 43.13382 | 24.97163 | 38999 ft | 493 kts | 136° |
| 2026-05-04 00:11 | 43.08426 | 25.03613 | 38998 ft | 492 kts | 136° |
| 2026-05-04 00:12 | 43.03476 | 25.10047 | 38998 ft | 491 kts | 136° |
| 2026-05-04 00:12 | 42.98539 | 25.16450 | 38999 ft | 491 kts | 136° |
| 2026-05-04 00:13 | 42.93570 | 25.22878 | 38998 ft | 492 kts | 136° |
| 2026-05-04 00:13 | 42.88588 | 25.29308 | 38998 ft | 492 kts | 137° |
| 2026-05-04 00:14 | 42.83596 | 25.35735 | 38998 ft | 493 kts | 137° |
| 2026-05-04 00:14 | 42.78599 | 25.42153 | 38999 ft | 497 kts | 137° |
| 2026-05-04 00:15 | 42.73534 | 25.48644 | 39002 ft | 498 kts | 137° |
| 2026-05-04 00:15 | 42.68538 | 25.55032 | 38998 ft | 495 kts | 137° |
| 2026-05-04 00:16 | 42.63513 | 25.61441 | 38999 ft | 498 kts | 137° |
| 2026-05-04 00:16 | 42.58475 | 25.67852 | 38998 ft | 490 kts | 137° |
| 2026-05-04 00:17 | 42.53479 | 25.74196 | 39007 ft | 495 kts | 137° |
| 2026-05-04 00:17 | 42.48468 | 25.80542 | 38998 ft | 492 kts | 137° |
| 2026-05-04 00:18 | 42.43503 | 25.86817 | 39002 ft | 489 kts | 137° |
| 2026-05-04 00:18 | 42.38497 | 25.93130 | 39000 ft | 490 kts | 137° |
| 2026-05-04 00:19 | 42.33547 | 25.99357 | 38999 ft | 490 kts | 137° |
| 2026-05-04 00:19 | 42.28535 | 26.05704 | 38998 ft | 490 kts | 135° |
| 2026-05-04 00:20 | 42.24166 | 26.12714 | 39002 ft | 491 kts | 125° |
| 2026-05-04 00:20 | 42.20659 | 26.20557 | 39006 ft | 492 kts | 119° |
| 2026-05-04 00:21 | 42.17308 | 26.28672 | 38998 ft | 491 kts | 119° |
| 2026-05-04 00:21 | 42.13982 | 26.36631 | 38872 ft | 490 kts | 120° |
| 2026-05-04 00:22 | 42.12291 | 26.40664 | 38263 ft | 490 kts | 120° |
| 2026-05-04 00:22 | 42.10620 | 26.44645 | 37398 ft | 493 kts | 120° |
| 2026-05-04 00:22 | 42.08927 | 26.48671 | 36414 ft | 496 kts | 120° |
| 2026-05-04 00:22 | 42.07230 | 26.52703 | 35406 ft | 499 kts | 120° |
| 2026-05-04 00:23 | 42.05519 | 26.56763 | 34352 ft | 501 kts | 120° |
| 2026-05-04 00:23 | 42.03809 | 26.60815 | 33296 ft | 503 kts | 120° |
| 2026-05-04 00:23 | 42.02078 | 26.64912 | 32510 ft | 498 kts | 120° |
| 2026-05-04 00:23 | 42.00380 | 26.68924 | 32008 ft | 488 kts | 120° |
| 2026-05-04 00:24 | 41.98728 | 26.72822 | 31636 ft | 476 kts | 120° |
| 2026-05-04 00:24 | 41.97080 | 26.76706 | 31134 ft | 468 kts | 120° |
| 2026-05-04 00:24 | 41.95455 | 26.80434 | 31001 ft | 459 kts | 121° |
| 2026-05-04 00:24 | 41.93805 | 26.84061 | 30999 ft | 461 kts | 122° |
| 2026-05-04 00:25 | 41.90442 | 26.91397 | 31000 ft | 464 kts | 121° |
| 2026-05-04 00:25 | 41.88755 | 26.95095 | 30779 ft | 460 kts | 121° |
| 2026-05-04 00:25 | 41.87114 | 26.98697 | 29635 ft | 464 kts | 121° |
| 2026-05-04 00:26 | 41.85420 | 27.02417 | 28303 ft | 469 kts | 121° |
| 2026-05-04 00:26 | 41.83733 | 27.06121 | 27598 ft | 458 kts | 121° |
| 2026-05-04 00:26 | 41.82118 | 27.09664 | 27343 ft | 436 kts | 121° |
| 2026-05-04 00:26 | 41.80530 | 27.13058 | 26898 ft | 420 kts | 124° |
| 2026-05-04 00:27 | 41.78893 | 27.16242 | 26291 ft | 413 kts | 124° |
| 2026-05-04 00:27 | 41.77265 | 27.19404 | 26013 ft | 413 kts | 124° |
| 2026-05-04 00:27 | 41.75641 | 27.22567 | 25609 ft | 413 kts | 124° |
| 2026-05-04 00:27 | 41.74008 | 27.25748 | 25206 ft | 410 kts | 124° |
| 2026-05-04 00:28 | 41.72389 | 27.28901 | 24801 ft | 407 kts | 124° |
| 2026-05-04 00:28 | 41.70760 | 27.31949 | 24395 ft | 404 kts | 131° |
| 2026-05-04 00:28 | 41.68684 | 27.34466 | 23995 ft | 402 kts | 147° |
| 2026-05-04 00:28 | 41.66205 | 27.36095 | 23594 ft | 399 kts | 163° |
| 2026-05-04 00:29 | 41.63512 | 27.37016 | 23204 ft | 397 kts | 166° |
| 2026-05-04 00:29 | 41.60854 | 27.37909 | 23035 ft | 395 kts | 166° |
| 2026-05-04 00:29 | 41.58240 | 27.38814 | 22998 ft | 394 kts | 166° |
| 2026-05-04 00:29 | 41.55597 | 27.39737 | 23000 ft | 395 kts | 166° |
| 2026-05-04 00:30 | 41.52881 | 27.40684 | 22993 ft | 394 kts | 166° |
| 2026-05-04 00:30 | 41.50341 | 27.41569 | 22929 ft | 385 kts | 166° |
| 2026-05-04 00:30 | 41.47780 | 27.42461 | 22794 ft | 370 kts | 165° |
| 2026-05-04 00:30 | 41.45468 | 27.43760 | 22565 ft | 354 kts | 146° |
| 2026-05-04 00:31 | 41.43647 | 27.45924 | 21836 ft | 353 kts | 126° |
| 2026-05-04 00:31 | 41.42528 | 27.48794 | 21140 ft | 352 kts | 105° |
| 2026-05-04 00:31 | 41.42261 | 27.51986 | 20493 ft | 348 kts | 84° |
| 2026-05-04 00:31 | 41.42786 | 27.55025 | 19845 ft | 345 kts | 70° |
| 2026-05-04 00:32 | 41.43626 | 27.58010 | 19215 ft | 341 kts | 69° |
| 2026-05-04 00:32 | 41.44423 | 27.60941 | 18603 ft | 338 kts | 71° |
| 2026-05-04 00:32 | 41.45139 | 27.63949 | 17996 ft | 335 kts | 73° |
| 2026-05-04 00:32 | 41.45765 | 27.66905 | 17751 ft | 327 kts | 75° |
| 2026-05-04 00:33 | 41.46346 | 27.69821 | 17502 ft | 327 kts | 75° |
| 2026-05-04 00:33 | 41.47474 | 27.75656 | 16859 ft | 324 kts | 75° |
| 2026-05-04 00:33 | 41.48015 | 27.78466 | 16553 ft | 323 kts | 75° |
| 2026-05-04 00:34 | 41.48562 | 27.81355 | 16227 ft | 321 kts | 78° |
| 2026-05-04 00:34 | 41.48846 | 27.84275 | 15906 ft | 320 kts | 88° |
| 2026-05-04 00:34 | 41.48745 | 27.87233 | 15544 ft | 317 kts | 97° |
| 2026-05-04 00:34 | 41.48478 | 27.90166 | 15187 ft | 316 kts | 96° |
| 2026-05-04 00:35 | 41.48247 | 27.93067 | 14833 ft | 314 kts | 96° |
| 2026-05-04 00:35 | 41.48025 | 27.95990 | 14479 ft | 312 kts | 96° |
| 2026-05-04 00:35 | 41.47715 | 27.98815 | 14136 ft | 311 kts | 108° |
| 2026-05-04 00:35 | 41.46698 | 28.01298 | 14029 ft | 308 kts | 133° |
| 2026-05-04 00:36 | 41.45083 | 28.03123 | 14003 ft | 309 kts | 143° |
| 2026-05-04 00:36 | 41.43363 | 28.04870 | 14005 ft | 310 kts | 142° |
| 2026-05-04 00:36 | 41.41726 | 28.06592 | 14000 ft | 310 kts | 142° |
| 2026-05-04 00:36 | 41.40024 | 28.08391 | 14003 ft | 309 kts | 144° |
| 2026-05-04 00:37 | 41.38141 | 28.09697 | 14005 ft | 309 kts | 164° |
| 2026-05-04 00:37 | 41.36037 | 28.10084 | 14005 ft | 308 kts | 181° |
| 2026-05-04 00:37 | 41.33887 | 28.10042 | 13964 ft | 309 kts | 180° |
| 2026-05-04 00:37 | 41.31751 | 28.10064 | 13693 ft | 303 kts | 179° |
| 2026-05-04 00:38 | 41.29698 | 28.10110 | 13327 ft | 288 kts | 179° |
| 2026-05-04 00:38 | 41.27766 | 28.10154 | 12983 ft | 281 kts | 179° |
| 2026-05-04 00:38 | 41.25803 | 28.09999 | 12622 ft | 276 kts | 196° |
| 2026-05-04 00:38 | 41.24113 | 28.08862 | 12281 ft | 276 kts | 221° |
| 2026-05-04 00:39 | 41.22755 | 28.07044 | 11932 ft | 274 kts | 226° |
| 2026-05-04 00:39 | 41.21418 | 28.05259 | 11582 ft | 272 kts | 225° |
| 2026-05-04 00:39 | 41.20077 | 28.03517 | 11231 ft | 271 kts | 224° |
| 2026-05-04 00:39 | 41.18768 | 28.01898 | 10891 ft | 269 kts | 218° |
| 2026-05-04 00:40 | 41.17155 | 28.00515 | 10538 ft | 268 kts | 208° |
| 2026-05-04 00:40 | 41.16331 | 27.99942 | 10372 ft | 268 kts | 208° |
| 2026-05-04 00:45 | 41.16227 | 27.99868 | 10342 ft | 268 kts | 208° |
| 2026-05-04 00:45 | 41.15381 | 27.99263 | 10171 ft | 267 kts | 209° |
| 2026-05-04 00:45 | 41.13773 | 27.98077 | 10027 ft | 264 kts | 210° |
| 2026-05-04 00:45 | 41.12182 | 27.96888 | 10000 ft | 265 kts | 210° |
| 2026-05-04 00:46 | 41.10518 | 27.95765 | 10010 ft | 266 kts | 201° |
| 2026-05-04 00:46 | 41.08754 | 27.95084 | 10007 ft | 267 kts | 193° |
| 2026-05-04 00:46 | 41.07550 | 27.94706 | 10009 ft | 267 kts | 194° |
| 2026-05-04 00:46 | 41.05750 | 27.94110 | 10010 ft | 267 kts | 194° |
| 2026-05-04 00:47 | 41.03940 | 27.93494 | 10010 ft | 267 kts | 195° |
| 2026-05-04 00:47 | 41.02144 | 27.92921 | 10000 ft | 267 kts | 189° |
| 2026-05-04 00:47 | 41.00291 | 27.92753 | 10005 ft | 267 kts | 179° |
| 2026-05-04 00:47 | 40.98442 | 27.92826 | 10012 ft | 267 kts | 179° |
| 2026-05-04 00:48 | 40.96566 | 27.92877 | 10000 ft | 266 kts | 175° |
| 2026-05-04 00:48 | 40.94812 | 27.93558 | 10010 ft | 268 kts | 148° |
| 2026-05-04 00:48 | 40.93472 | 27.95232 | 10012 ft | 269 kts | 121° |
| 2026-05-04 00:48 | 40.92852 | 27.97534 | 9966 ft | 268 kts | 95° |
| 2026-05-04 00:49 | 40.92975 | 27.99927 | 9614 ft | 269 kts | 78° |
| 2026-05-04 00:49 | 40.93393 | 28.02270 | 9154 ft | 271 kts | 76° |
| 2026-05-04 00:49 | 40.93829 | 28.04697 | 8721 ft | 266 kts | 78° |
| 2026-05-04 00:49 | 40.94180 | 28.07062 | 8536 ft | 262 kts | 80° |
| 2026-05-04 00:50 | 40.94477 | 28.09416 | 8288 ft | 262 kts | 81° |
| 2026-05-04 00:50 | 40.94747 | 28.11816 | 8015 ft | 261 kts | 82° |
| 2026-05-04 00:50 | 40.94992 | 28.14105 | 7750 ft | 260 kts | 82° |
| 2026-05-04 00:50 | 40.95246 | 28.16515 | 7479 ft | 259 kts | 82° |
| 2026-05-04 00:51 | 40.95491 | 28.18848 | 7225 ft | 257 kts | 82° |
| 2026-05-04 00:51 | 40.95728 | 28.21102 | 6968 ft | 248 kts | 82° |
| 2026-05-04 00:51 | 40.95959 | 28.23295 | 6717 ft | 245 kts | 82° |
| 2026-05-04 00:51 | 40.96195 | 28.25541 | 6463 ft | 244 kts | 82° |
| 2026-05-04 00:52 | 40.96430 | 28.27771 | 6214 ft | 244 kts | 82° |
| 2026-05-04 00:52 | 40.96662 | 28.29983 | 5974 ft | 243 kts | 82° |
| 2026-05-04 00:52 | 40.96892 | 28.32181 | 5734 ft | 242 kts | 82° |
| 2026-05-04 00:52 | 40.97121 | 28.34370 | 5478 ft | 234 kts | 82° |
| 2026-05-04 00:53 | 40.97340 | 28.36477 | 5251 ft | 231 kts | 82° |
| 2026-05-04 00:53 | 40.97554 | 28.38575 | 5002 ft | 232 kts | 84° |
| 2026-05-04 00:53 | 40.97578 | 28.40712 | 4804 ft | 232 kts | 91° |
| 2026-05-04 00:53 | 40.97562 | 28.42854 | 4603 ft | 232 kts | 90° |
| 2026-05-04 00:54 | 40.97556 | 28.44931 | 4405 ft | 231 kts | 90° |
| 2026-05-04 00:54 | 40.97554 | 28.47045 | 4210 ft | 230 kts | 90° |
| 2026-05-04 00:54 | 40.97542 | 28.49143 | 3998 ft | 230 kts | 93° |
| 2026-05-04 00:54 | 40.97274 | 28.51244 | 3808 ft | 229 kts | 103° |
| 2026-05-04 00:55 | 40.96924 | 28.53284 | 3600 ft | 228 kts | 102° |
| 2026-05-04 00:55 | 40.96593 | 28.55304 | 3401 ft | 223 kts | 102° |
| 2026-05-04 00:55 | 40.96273 | 28.57300 | 3198 ft | 222 kts | 102° |
| 2026-05-04 00:55 | 40.95970 | 28.59290 | 3022 ft | 221 kts | 98° |
| 2026-05-04 00:56 | 40.95941 | 28.61343 | 3008 ft | 221 kts | 88° |
| 2026-05-04 00:56 | 40.95988 | 28.63365 | 3007 ft | 221 kts | 89° |
| 2026-05-04 00:56 | 40.96016 | 28.65376 | 3007 ft | 221 kts | 89° |
| 2026-05-04 00:56 | 40.96145 | 28.67401 | 3001 ft | 221 kts | 73° |
| 2026-05-04 00:57 | 40.96834 | 28.68920 | 3010 ft | 221 kts | 44° |
| 2026-05-04 00:57 | 40.98117 | 28.70035 | 3010 ft | 220 kts | 28° |
| 2026-05-04 00:57 | 40.99484 | 28.70933 | 3006 ft | 220 kts | 22° |
| 2026-05-04 00:57 | 41.00981 | 28.71342 | 3009 ft | 219 kts | 1° |
| 2026-05-04 00:58 | 41.02491 | 28.71239 | 3007 ft | 219 kts | 355° |
| 2026-05-04 00:58 | 41.04008 | 28.71181 | 3007 ft | 219 kts | 359° |
| 2026-05-04 00:58 | 41.05525 | 28.71160 | 3007 ft | 219 kts | 358° |
| 2026-05-04 00:58 | 41.07055 | 28.71123 | 3006 ft | 218 kts | 359° |
| 2026-05-04 00:59 | 41.08500 | 28.71098 | 3003 ft | 197 kts | 358° |
| 2026-05-04 00:59 | 41.09832 | 28.71070 | 3006 ft | 190 kts | 358° |
| 2026-05-04 00:59 | 41.11149 | 28.71045 | 3007 ft | 189 kts | 358° |
| 2026-05-04 00:59 | 41.12450 | 28.71019 | 3008 ft | 188 kts | 358° |
| 2026-05-04 01:00 | 41.13773 | 28.70993 | 2833 ft | 188 kts | 358° |
| 2026-05-04 01:00 | 41.14987 | 28.70970 | 2574 ft | 161 kts | 358° |
| 2026-05-04 01:00 | 41.16053 | 28.70948 | 2372 ft | 145 kts | 358° |
| 2026-05-04 01:00 | 41.17029 | 28.70928 | 2193 ft | 141 kts | 358° |
| 2026-05-04 01:01 | 41.18010 | 28.70909 | 2003 ft | 139 kts | 358° |
| 2026-05-04 01:01 | 41.18975 | 28.70890 | 1821 ft | 139 kts | 358° |
| 2026-05-04 01:01 | 41.19945 | 28.70871 | 1638 ft | 139 kts | 358° |
| 2026-05-04 01:01 | 41.20916 | 28.70853 | 1447 ft | 139 kts | 358° |
| 2026-05-04 01:02 | 41.21677 | 28.70837 | 1306 ft | 138 kts | 358° |
| 2026-05-04 01:02 | 41.22634 | 28.70818 | 1115 ft | 138 kts | 358° |
| 2026-05-04 01:02 | 41.23588 | 28.70800 | 942 ft | 137 kts | 358° |
| 2026-05-04 01:02 | 41.24550 | 28.70780 | 754 ft | 137 kts | 358° |
| 2026-05-04 01:03 | 41.25490 | 28.70763 | 584 ft | 137 kts | 358° |
| 2026-05-04 01:03 | 41.26453 | 28.70742 | 391 ft | 136 kts | 358° |
| 2026-05-04 01:03 | 41.27315 | 28.70722 | 329 ft | 94 kts | 359° |
| 2026-05-04 01:03 | 41.27775 | 28.70712 | 351 ft | 53 kts | 359° |
| 2026-05-04 01:04 | 41.28113 | 28.70703 | 351 ft | 46 kts | 359° |
| 2026-05-04 01:04 | 41.28428 | 28.70709 | 334 ft | 45 kts | 4° |
| 2026-05-04 01:04 | 41.28737 | 28.70707 | 329 ft | 44 kts | 354° |
| 2026-05-04 01:04 | 41.28982 | 28.70770 | 334 ft | 33 kts | 58° |
| 2026-05-04 01:05 | 41.29107 | 28.70846 | 336 ft | 7 kts | 53° |
| 2026-05-04 01:05 | 41.29120 | 28.70888 | 350 ft | 3 kts | 44° |
| 2026-05-04 01:05 | 41.29138 | 28.70911 | 354 ft | 4 kts | 43° |
| 2026-05-04 01:05 | 41.29177 | 28.70959 | 353 ft | 11 kts | 43° |